createdAt,value
2022-08-29T00:00:18.485Z,95.00
2022-08-29T00:02:48.248Z,95.00
2022-08-29T00:05:16.554Z,95.20
2022-08-29T00:07:44.531Z,95.30
2022-08-29T00:10:14.110Z,95.30
2022-08-29T00:12:42.270Z,95.40
2022-08-29T00:15:12.243Z,95.30
2022-08-29T00:17:40.263Z,95.50
2022-08-29T00:20:10.406Z,95.60
2022-08-29T00:22:38.558Z,95.60
2022-08-29T00:25:07.684Z,95.80
2022-08-29T00:27:37.298Z,95.80
2022-08-29T00:30:06.648Z,95.90
2022-08-29T00:32:34.777Z,96.00
2022-08-29T00:35:03.010Z,96.00
2022-08-29T00:37:31.011Z,96.10
2022-08-29T00:39:59.019Z,96.30
2022-08-29T00:42:26.993Z,96.50
2022-08-29T00:44:56.368Z,96.40
2022-08-29T00:47:32.971Z,96.40
2022-08-29T00:50:03.034Z,96.80
2022-08-29T00:52:35.562Z,96.60
2022-08-29T00:55:06.605Z,96.60
2022-08-29T00:57:34.995Z,96.90
2022-08-29T01:00:07.631Z,96.80
2022-08-29T01:02:39.857Z,96.90
2022-08-29T01:05:10.417Z,96.90
2022-08-29T01:07:38.633Z,97.00
2022-08-29T01:10:13.520Z,97.10
2022-08-29T01:12:41.290Z,97.20
2022-08-29T01:15:13.437Z,97.10
2022-08-29T01:17:44.908Z,97.30
2022-08-29T01:20:21.031Z,97.40
2022-08-29T01:22:58.102Z,97.60
2022-08-29T01:25:31.863Z,97.60
2022-08-29T01:28:06.835Z,97.80
2022-08-29T01:30:35.268Z,98.00
2022-08-29T01:33:03.276Z,98.00
2022-08-29T01:35:33.202Z,98.00
2022-08-29T01:38:02.026Z,98.10
2022-08-29T01:40:31.966Z,98.30
2022-08-29T01:42:59.875Z,98.30
2022-08-29T01:45:27.880Z,98.50
2022-08-29T01:47:56.251Z,98.60
2022-08-29T01:50:24.170Z,98.70
2022-08-29T01:52:52.081Z,98.70
2022-08-29T01:55:20.125Z,98.90
2022-08-29T01:57:49.698Z,98.90
2022-08-29T02:00:19.458Z,99.80
2022-08-29T02:02:47.478Z,99.70
2022-08-29T02:05:15.427Z,99.90
2022-08-29T02:07:43.687Z,99.90
2022-08-29T02:10:12.370Z,99.90
2022-08-29T02:12:40.477Z,99.90
2022-08-29T02:15:10.568Z,99.90
2022-08-29T02:17:38.820Z,99.90
2022-08-29T02:20:09.015Z,99.90
2022-08-29T02:22:37.757Z,99.90
2022-08-29T02:25:27.954Z,99.90
2022-08-29T02:27:57.641Z,99.90
2022-08-29T02:30:27.131Z,99.90
2022-08-29T02:32:55.237Z,99.90
2022-08-29T02:35:24.313Z,99.90
2022-08-29T02:37:52.771Z,99.90
2022-08-29T02:40:24.677Z,99.90
2022-08-29T02:43:00.239Z,99.90
2022-08-29T02:45:30.071Z,99.90
2022-08-29T02:47:58.361Z,99.90
2022-08-29T02:50:26.321Z,99.90
2022-08-29T02:52:54.520Z,99.90
2022-08-29T02:55:22.849Z,99.90
2022-08-29T02:57:52.065Z,99.90
2022-08-29T03:00:24.361Z,99.90
2022-08-29T03:02:54.357Z,99.90
2022-08-29T03:05:27.331Z,99.90
2022-08-29T03:07:55.739Z,99.90
2022-08-29T03:10:24.017Z,99.90
2022-08-29T03:12:52.024Z,99.90
2022-08-29T03:15:21.260Z,99.90
2022-08-29T03:17:49.535Z,99.90
2022-08-29T03:20:21.030Z,99.90
2022-08-29T03:22:49.925Z,99.90
2022-08-29T03:25:18.234Z,99.90
2022-08-29T03:27:46.137Z,99.90
2022-08-29T03:30:16.066Z,99.90
2022-08-29T03:32:44.375Z,99.90
2022-08-29T03:35:13.732Z,99.90
2022-08-29T03:37:43.031Z,99.90
2022-08-29T03:40:12.921Z,99.90
2022-08-29T03:42:42.789Z,99.90
2022-08-29T03:45:13.950Z,99.90
2022-08-29T03:47:41.934Z,99.90
2022-08-29T03:50:11.066Z,99.90
2022-08-29T03:52:39.624Z,99.90
2022-08-29T03:55:10.026Z,99.90
2022-08-29T03:57:37.976Z,99.90
2022-08-29T04:00:11.900Z,99.90
2022-08-29T04:02:40.289Z,99.90
2022-08-29T04:05:09.849Z,99.90
2022-08-29T04:07:43.265Z,99.90
2022-08-29T04:10:15.270Z,99.90
2022-08-29T04:12:43.225Z,99.90
2022-08-29T04:15:11.715Z,99.90
2022-08-29T04:17:53.103Z,99.90
2022-08-29T04:20:25.426Z,99.90
2022-08-29T04:22:55.045Z,99.90
2022-08-29T04:25:26.257Z,99.90
2022-08-29T04:27:54.907Z,99.90
2022-08-29T04:30:25.527Z,99.90
2022-08-29T04:32:53.629Z,99.90
2022-08-29T04:35:21.822Z,99.90
2022-08-29T04:37:50.225Z,99.90
2022-08-29T04:40:21.188Z,99.90
2022-08-29T04:42:52.233Z,99.90
2022-08-29T04:45:23.282Z,99.90
2022-08-29T04:47:51.673Z,99.90
2022-08-29T04:50:22.654Z,99.90
2022-08-29T04:52:53.431Z,99.90
2022-08-29T04:55:25.717Z,99.90
2022-08-29T04:57:57.278Z,99.90
2022-08-29T05:00:28.663Z,99.90
2022-08-29T05:02:58.665Z,99.90
2022-08-29T05:05:27.354Z,99.90
2022-08-29T05:07:55.334Z,99.90
2022-08-29T05:10:23.839Z,99.90
2022-08-29T05:12:51.822Z,99.90
2022-08-29T05:15:21.346Z,99.90
2022-08-29T05:17:49.230Z,99.90
2022-08-29T05:20:17.877Z,99.90
2022-08-29T05:22:45.824Z,99.90
2022-08-29T05:25:18.013Z,99.90
2022-08-29T05:27:47.454Z,99.90
2022-08-29T05:30:16.345Z,99.90
2022-08-29T05:32:54.919Z,99.90
2022-08-29T05:35:22.982Z,99.90
2022-08-29T05:37:51.380Z,99.90
2022-08-29T05:40:20.715Z,99.90
2022-08-29T05:42:48.711Z,99.90
2022-08-29T05:45:17.662Z,99.90
2022-08-29T05:47:46.406Z,99.90
2022-08-29T05:50:17.040Z,99.90
2022-08-29T05:52:45.650Z,99.90
2022-08-29T05:55:13.705Z,99.90
2022-08-29T05:57:41.822Z,99.90
2022-08-29T06:00:12.149Z,99.90
2022-08-29T06:02:40.515Z,99.90
2022-08-29T06:05:09.080Z,99.90
2022-08-29T06:07:40.119Z,99.90
2022-08-29T06:10:08.998Z,99.90
2022-08-29T06:12:37.521Z,99.90
2022-08-29T06:15:06.480Z,99.90
2022-08-29T06:17:35.640Z,99.90
2022-08-29T06:20:04.248Z,99.90
2022-08-29T06:22:32.696Z,99.90
2022-08-29T06:25:27.978Z,99.90
2022-08-29T06:27:55.154Z,99.90
2022-08-29T06:30:23.093Z,99.90
2022-08-29T06:32:50.992Z,99.90
2022-08-29T06:35:19.179Z,99.90
2022-08-29T06:37:47.125Z,99.90
2022-08-29T06:40:16.578Z,99.90
2022-08-29T06:42:44.591Z,99.90
2022-08-29T06:45:12.731Z,99.90
2022-08-29T06:47:40.715Z,99.90
2022-08-29T06:50:09.472Z,99.90
2022-08-29T06:52:37.393Z,99.90
2022-08-29T06:55:11.500Z,99.90
2022-08-29T06:57:45.392Z,99.90
2022-08-29T07:00:21.827Z,99.90
2022-08-29T07:02:52.785Z,99.90
2022-08-29T07:05:21.578Z,99.90
2022-08-29T07:07:49.610Z,99.90
2022-08-29T07:10:22.250Z,99.90
2022-08-29T07:12:52.686Z,99.90
2022-08-29T07:15:23.311Z,99.90
2022-08-29T07:17:59.246Z,99.90
2022-08-29T07:20:27.814Z,99.90
2022-08-29T07:22:55.807Z,99.90
2022-08-29T07:25:27.145Z,99.90
2022-08-29T07:27:56.434Z,99.90
2022-08-29T07:30:24.420Z,99.90
2022-08-29T07:32:52.783Z,99.90
2022-08-29T07:35:30.055Z,99.90
2022-08-29T07:38:01.002Z,99.90
2022-08-29T07:40:29.028Z,99.90
2022-08-29T07:42:58.535Z,99.90
2022-08-29T07:45:26.539Z,99.90
2022-08-29T07:47:54.532Z,99.90
2022-08-29T07:50:22.569Z,99.90
2022-08-29T07:52:52.375Z,99.90
2022-08-29T07:55:21.816Z,99.90
2022-08-29T07:57:52.239Z,99.90
2022-08-29T08:00:21.828Z,99.90
2022-08-29T08:02:49.840Z,99.90
2022-08-29T08:05:18.178Z,99.90
2022-08-29T08:07:47.410Z,99.90
2022-08-29T08:10:17.035Z,99.90
2022-08-29T08:12:45.010Z,99.90
2022-08-29T08:15:13.175Z,99.90
2022-08-29T08:17:44.232Z,99.90
2022-08-29T08:20:13.961Z,99.60
2022-08-29T08:22:42.125Z,99.80
2022-08-29T08:25:10.641Z,99.60
2022-08-29T08:27:43.362Z,99.90
2022-08-29T08:30:12.748Z,99.40
2022-08-29T08:32:46.497Z,99.30
2022-08-29T08:35:16.165Z,98.90
2022-08-29T08:37:44.495Z,99.10
2022-08-29T08:40:21.062Z,98.60
2022-08-29T08:42:50.544Z,98.80
2022-08-29T08:45:20.597Z,98.50
2022-08-29T08:47:54.111Z,98.10
2022-08-29T08:50:28.268Z,97.50
2022-08-29T08:53:00.816Z,96.90
2022-08-29T08:55:41.438Z,97.30
2022-08-29T08:58:16.813Z,97.10
2022-08-29T09:00:47.931Z,97.00
2022-08-29T09:03:52.369Z,96.70
2022-08-29T09:06:33.892Z,97.00
2022-08-29T09:09:17.006Z,96.70
2022-08-29T09:11:55.899Z,96.20
2022-08-29T09:14:40.985Z,96.10
2022-08-29T09:17:15.422Z,96.20
2022-08-29T09:19:46.364Z,95.90
2022-08-29T09:22:21.136Z,95.60
2022-08-29T09:24:52.124Z,94.60
2022-08-29T09:27:21.525Z,94.80
2022-08-29T09:29:50.923Z,94.30
2022-08-29T09:32:22.496Z,94.50
2022-08-29T09:35:09.356Z,94.30
2022-08-29T09:37:38.465Z,94.70
2022-08-29T09:40:10.773Z,94.30
2022-08-29T09:42:41.457Z,94.20
2022-08-29T09:45:18.015Z,93.80
2022-08-29T09:47:49.032Z,93.70
2022-08-29T09:50:24.511Z,93.60
2022-08-29T09:52:54.355Z,93.60
2022-08-29T09:55:31.030Z,93.10
2022-08-29T09:58:02.277Z,92.90
2022-08-29T10:00:33.861Z,92.00
2022-08-29T10:03:05.307Z,92.10
2022-08-29T10:05:44.159Z,92.50
2022-08-29T10:08:31.303Z,92.50
2022-08-29T10:11:01.956Z,92.40
2022-08-29T10:13:51.563Z,92.10
2022-08-29T10:16:33.219Z,91.70
2022-08-29T10:19:05.950Z,91.20
2022-08-29T10:21:41.085Z,91.50
2022-08-29T10:24:37.440Z,91.00
2022-08-29T10:27:13.579Z,90.90
2022-08-29T10:30:01.825Z,90.70
2022-08-29T10:33:02.139Z,90.80
2022-08-29T10:35:37.834Z,90.70
2022-08-29T10:38:14.438Z,90.10
2022-08-29T10:40:45.770Z,89.20
2022-08-29T10:43:35.078Z,88.80
2022-08-29T10:46:13.054Z,86.90
2022-08-29T10:48:49.375Z,87.50
2022-08-29T10:51:23.393Z,88.00
2022-08-29T10:53:58.284Z,86.20
2022-08-29T10:56:31.464Z,86.80
2022-08-29T10:59:12.203Z,86.80
2022-08-29T11:01:44.759Z,87.20
2022-08-29T11:04:18.351Z,87.20
2022-08-29T11:06:53.318Z,86.60
2022-08-29T11:09:29.499Z,84.90
2022-08-29T11:12:17.452Z,83.70
2022-08-29T11:14:50.004Z,83.50
2022-08-29T11:17:20.145Z,83.60
2022-08-29T11:19:58.945Z,83.70
2022-08-29T11:22:32.199Z,82.80
2022-08-29T11:25:06.701Z,81.50
2022-08-29T11:27:41.643Z,82.50
2022-08-29T11:30:17.460Z,82.90
2022-08-29T11:32:54.104Z,82.10
2022-08-29T11:35:25.591Z,81.00
2022-08-29T11:38:29.992Z,79.20
2022-08-29T11:41:28.334Z,77.10
2022-08-29T11:44:03.768Z,75.50
2022-08-29T11:46:38.681Z,73.10
2022-08-29T11:49:28.202Z,72.30
2022-08-29T11:51:59.294Z,70.70
2022-08-29T11:54:50.669Z,68.10
2022-08-29T11:57:46.765Z,66.50
2022-08-29T12:00:46.923Z,63.10
2022-08-29T12:03:54.766Z,60.00
2022-08-29T12:06:53.309Z,58.20
2022-08-29T12:09:45.471Z,56.00
2022-08-29T12:12:33.634Z,53.00
2022-08-29T12:15:03.243Z,52.80
2022-08-29T12:18:01.312Z,51.30
2022-08-29T12:20:42.029Z,49.90
2022-08-29T12:23:21.870Z,50.60
2022-08-29T12:28:49.795Z,48.40
2022-08-29T12:32:22.558Z,47.70
2022-08-29T12:35:07.702Z,47.70
2022-08-29T12:37:50.089Z,45.90
2022-08-29T12:40:36.761Z,47.30
2022-08-29T12:43:22.374Z,47.50
2022-08-29T12:45:51.463Z,47.80
2022-08-29T12:48:25.675Z,50.30
2022-08-29T12:50:54.184Z,49.70
2022-08-29T12:53:24.857Z,51.00
2022-08-29T12:55:55.616Z,51.10
2022-08-29T12:58:38.472Z,49.60
2022-08-29T13:01:10.529Z,46.70
2022-08-29T13:03:40.014Z,47.10
2022-08-29T13:06:14.837Z,47.10
2022-08-29T13:08:42.895Z,45.60
2022-08-29T13:11:12.674Z,46.60
2022-08-29T13:13:41.057Z,46.40
2022-08-29T13:16:23.933Z,46.90
2022-08-29T13:19:10.099Z,47.90
2022-08-29T13:21:39.303Z,48.40
2022-08-29T13:24:13.410Z,48.50
2022-08-29T13:26:55.978Z,47.10
2022-08-29T13:29:37.767Z,45.40
2022-08-29T13:32:27.539Z,46.40
2022-08-29T13:35:06.138Z,44.90
2022-08-29T13:37:36.637Z,45.80
2022-08-29T13:40:34.209Z,45.10
2022-08-29T13:43:02.615Z,45.10
2022-08-29T13:45:30.819Z,45.20
2022-08-29T13:48:13.337Z,44.30
2022-08-29T13:50:42.717Z,42.50
2022-08-29T13:53:10.782Z,43.00
2022-08-29T13:55:41.332Z,43.40
2022-08-29T13:58:12.087Z,43.40
2022-08-29T14:00:40.202Z,43.60
2022-08-29T14:03:09.419Z,42.60
2022-08-29T14:05:38.618Z,42.90
2022-08-29T14:08:08.085Z,43.20
2022-08-29T14:10:36.420Z,43.90
2022-08-29T14:13:05.128Z,45.60
2022-08-29T14:15:33.726Z,44.50
2022-08-29T14:18:01.744Z,43.00
2022-08-29T14:20:29.652Z,43.90
2022-08-29T14:22:57.594Z,44.50
2022-08-29T14:25:27.151Z,44.60
2022-08-29T14:27:55.372Z,45.10
2022-08-29T14:30:24.716Z,45.40
2022-08-29T14:32:52.880Z,45.90
2022-08-29T14:35:26.680Z,44.90
2022-08-29T14:38:00.648Z,46.40
2022-08-29T14:40:32.218Z,46.80
2022-08-29T14:43:01.674Z,47.00
2022-08-29T14:45:30.861Z,46.70
2022-08-29T14:47:58.919Z,47.20
2022-08-29T14:50:27.118Z,46.70
2022-08-29T14:52:55.357Z,47.00
2022-08-29T14:55:23.505Z,47.50
2022-08-29T14:57:52.913Z,46.50
2022-08-29T15:00:25.418Z,47.20
2022-08-29T15:02:53.829Z,47.80
2022-08-29T15:05:22.436Z,48.30
2022-08-29T15:07:50.441Z,47.80
2022-08-29T15:10:21.059Z,48.10
2022-08-29T15:12:49.064Z,48.90
2022-08-29T15:15:18.918Z,49.10
2022-08-29T15:17:47.114Z,49.40
2022-08-29T15:20:35.770Z,49.50
2022-08-29T15:23:04.018Z,49.20
2022-08-29T15:25:32.040Z,49.60
2022-08-29T15:28:00.012Z,49.80
2022-08-29T15:30:29.493Z,49.70
2022-08-29T15:32:57.430Z,50.10
2022-08-29T15:35:25.571Z,50.40
2022-08-29T15:37:54.338Z,50.90
2022-08-29T15:40:22.704Z,50.80
2022-08-29T15:42:51.094Z,51.10
2022-08-29T15:45:19.218Z,51.30
2022-08-29T15:47:54.032Z,50.80
2022-08-29T15:50:22.936Z,51.20
2022-08-29T15:52:50.897Z,50.90
2022-08-29T15:55:18.869Z,51.40
2022-08-29T15:57:52.255Z,51.60
2022-08-29T16:00:29.368Z,51.50
2022-08-29T16:03:01.541Z,52.40
2022-08-29T16:05:29.583Z,52.40
2022-08-29T16:07:57.704Z,52.70
2022-08-29T16:10:25.684Z,51.90
2022-08-29T16:12:53.780Z,53.20
2022-08-29T16:15:21.933Z,53.60
2022-08-29T16:17:50.992Z,53.60
2022-08-29T16:20:20.419Z,53.50
2022-08-29T16:22:48.675Z,53.80
2022-08-29T16:25:16.947Z,53.70
2022-08-29T16:27:44.937Z,53.40
2022-08-29T16:30:13.880Z,53.40
2022-08-29T16:32:42.046Z,53.60
2022-08-29T16:35:11.463Z,53.60
2022-08-29T16:37:40.899Z,54.20
2022-08-29T16:40:11.271Z,54.60
2022-08-29T16:42:39.537Z,55.00
2022-08-29T16:45:09.763Z,55.30
2022-08-29T16:47:38.181Z,55.60
2022-08-29T16:50:08.948Z,55.40
2022-08-29T16:52:37.263Z,55.50
2022-08-29T16:55:08.695Z,55.40
2022-08-29T16:57:37.503Z,55.50
2022-08-29T17:00:10.096Z,55.50
2022-08-29T17:02:38.251Z,55.20
2022-08-29T17:05:07.797Z,55.40
2022-08-29T17:07:34.639Z,55.70
2022-08-29T17:10:02.984Z,55.80
2022-08-29T17:12:31.188Z,56.10
2022-08-29T17:14:58.023Z,56.00
2022-08-29T17:17:26.163Z,55.70
2022-08-29T17:19:54.147Z,56.30
2022-08-29T17:22:23.062Z,56.10
2022-08-29T17:24:51.480Z,56.70
2022-08-29T17:27:21.602Z,57.10
2022-08-29T17:29:51.564Z,57.30
2022-08-29T17:32:19.472Z,57.60
2022-08-29T17:34:47.835Z,57.80
2022-08-29T17:37:16.019Z,58.80
2022-08-29T17:39:44.130Z,58.20
2022-08-29T17:42:12.954Z,58.70
2022-08-29T17:44:42.272Z,59.80
2022-08-29T17:47:11.580Z,59.20
2022-08-29T17:49:39.584Z,59.00
2022-08-29T17:52:10.148Z,59.00
2022-08-29T17:54:38.224Z,59.20
2022-08-29T17:57:06.795Z,59.40
2022-08-29T17:59:36.939Z,59.80
2022-08-29T18:02:08.389Z,60.20
2022-08-29T18:04:38.048Z,60.50
2022-08-29T18:07:06.071Z,60.80
2022-08-29T18:09:34.027Z,60.70
2022-08-29T18:12:09.818Z,60.80
2022-08-29T18:14:37.796Z,61.10
2022-08-29T18:17:08.805Z,61.10
2022-08-29T18:19:38.554Z,61.30
2022-08-29T18:22:06.749Z,61.60
2022-08-29T18:24:35.153Z,62.00
2022-08-29T18:27:07.483Z,62.20
2022-08-29T18:29:35.819Z,62.20
2022-08-29T18:32:04.642Z,62.50
2022-08-29T18:34:33.195Z,62.70
2022-08-29T18:37:02.583Z,63.00
2022-08-29T18:39:30.642Z,63.30
2022-08-29T18:41:58.571Z,63.40
2022-08-29T18:44:26.558Z,63.80
2022-08-29T18:46:54.778Z,63.90
2022-08-29T18:49:43.577Z,64.90
2022-08-29T18:52:13.559Z,64.40
2022-08-29T18:54:42.416Z,64.60
2022-08-29T18:57:13.435Z,64.80
2022-08-29T18:59:42.339Z,65.80
2022-08-29T19:02:11.737Z,65.30
2022-08-29T19:04:41.394Z,65.40
2022-08-29T19:07:10.304Z,65.90
2022-08-29T19:09:39.678Z,66.10
2022-08-29T19:12:09.416Z,66.30
2022-08-29T19:14:45.877Z,66.60
2022-08-29T19:17:14.645Z,66.60
2022-08-29T19:20:00.063Z,66.70
2022-08-29T19:22:28.739Z,67.30
2022-08-29T19:24:58.074Z,67.60
2022-08-29T19:27:42.135Z,67.80
2022-08-29T19:30:12.152Z,67.90
2022-08-29T19:32:40.393Z,68.20
2022-08-29T19:35:10.971Z,68.30
2022-08-29T19:37:38.991Z,68.70
2022-08-29T19:40:10.617Z,69.10
2022-08-29T19:42:41.940Z,69.10
2022-08-29T19:45:12.121Z,69.50
2022-08-29T19:47:40.715Z,69.60
2022-08-29T19:50:12.442Z,69.80
2022-08-29T19:52:40.557Z,70.00
2022-08-29T19:55:15.274Z,70.10
2022-08-29T19:57:46.462Z,70.60
2022-08-29T20:00:17.752Z,70.90
2022-08-29T20:02:46.865Z,71.00
2022-08-29T20:05:15.190Z,71.30
2022-08-29T20:07:46.950Z,71.40
2022-08-29T20:10:22.246Z,71.70
2022-08-29T20:12:51.352Z,72.00
2022-08-29T20:15:20.431Z,72.30
2022-08-29T20:17:48.572Z,72.30
2022-08-29T20:20:20.203Z,72.60
2022-08-29T20:22:51.290Z,73.40
2022-08-29T20:25:21.684Z,73.50
2022-08-29T20:27:49.911Z,73.70
2022-08-29T20:30:22.928Z,74.00
2022-08-29T20:32:51.191Z,74.20
2022-08-29T20:35:39.935Z,74.40
2022-08-29T20:38:07.568Z,74.40
2022-08-29T20:40:39.438Z,74.50
2022-08-29T20:43:07.664Z,75.10
2022-08-29T20:45:35.639Z,74.70
2022-08-29T20:48:03.867Z,74.60
2022-08-29T20:50:31.850Z,74.80
2022-08-29T20:52:59.836Z,75.00
2022-08-29T20:55:27.843Z,74.90
2022-08-29T20:57:58.631Z,75.30
2022-08-29T21:00:26.701Z,75.30
2022-08-29T21:03:12.213Z,75.50
2022-08-29T21:05:41.422Z,75.50
2022-08-29T21:08:11.208Z,75.80
2022-08-29T21:10:39.614Z,75.80
2022-08-29T21:13:09.990Z,76.10
2022-08-29T21:15:41.038Z,76.20
2022-08-29T21:18:10.143Z,76.50
2022-08-29T21:20:41.325Z,76.60
2022-08-29T21:23:23.346Z,76.90
2022-08-29T21:25:54.064Z,77.10
2022-08-29T21:28:25.460Z,77.10
2022-08-29T21:30:54.783Z,77.50
2022-08-29T21:33:23.352Z,77.40
2022-08-29T21:35:51.588Z,77.60
2022-08-29T21:38:19.848Z,77.90
2022-08-29T21:40:51.310Z,78.20
2022-08-29T21:43:20.713Z,78.30
2022-08-29T21:45:50.057Z,78.50
2022-08-29T21:48:18.114Z,78.60
2022-08-29T21:50:46.059Z,79.10
2022-08-29T21:53:15.393Z,79.30
2022-08-29T21:55:43.459Z,79.60
2022-08-29T21:58:11.914Z,79.80
2022-08-29T22:00:42.871Z,80.00
2022-08-29T22:03:17.059Z,80.30
2022-08-29T22:05:45.235Z,80.40
2022-08-29T22:08:15.190Z,80.80
2022-08-29T22:10:44.895Z,81.10
2022-08-29T22:13:15.402Z,81.40
2022-08-29T22:16:01.255Z,81.60
2022-08-29T22:18:30.698Z,82.00
2022-08-29T22:21:00.390Z,82.20
2022-08-29T22:23:29.604Z,82.40
2022-08-29T22:25:58.826Z,82.60
2022-08-29T22:28:27.156Z,83.10
2022-08-29T22:30:55.125Z,83.40
2022-08-29T22:33:26.079Z,83.70
2022-08-29T22:35:55.404Z,84.00
2022-08-29T22:38:23.439Z,84.20
2022-08-29T22:40:57.418Z,84.30
2022-08-29T22:43:25.903Z,84.40
2022-08-29T22:45:54.160Z,84.70
2022-08-29T22:48:22.243Z,85.00
2022-08-29T22:50:54.113Z,85.40
2022-08-29T22:53:27.988Z,85.90
2022-08-29T22:55:56.501Z,86.20
2022-08-29T22:58:24.439Z,86.50
2022-08-29T23:00:52.425Z,87.50
2022-08-29T23:03:20.449Z,87.30
2022-08-29T23:05:48.541Z,87.70
2022-08-29T23:08:17.128Z,88.10
2022-08-29T23:10:49.101Z,88.20
2022-08-29T23:13:17.804Z,88.50
2022-08-29T23:15:45.937Z,88.80
2022-08-29T23:18:14.094Z,89.10
2022-08-29T23:20:42.034Z,89.30
2022-08-29T23:23:14.277Z,90.00
2022-08-29T23:25:42.210Z,90.10
2022-08-29T23:28:11.511Z,90.20
2022-08-29T23:30:39.486Z,90.30
2022-08-29T23:33:07.399Z,90.60
2022-08-29T23:35:36.979Z,90.60
2022-08-29T23:38:07.665Z,90.80
2022-08-29T23:40:36.279Z,91.00
2022-08-29T23:43:05.269Z,91.00
2022-08-29T23:45:34.571Z,91.20
2022-08-29T23:48:02.669Z,91.30
2022-08-29T23:50:30.693Z,91.60
2022-08-29T23:52:58.875Z,91.60
2022-08-29T23:55:26.898Z,91.90
2022-08-29T23:57:54.818Z,91.90
